Time;durP1;ratioP1;P1;durP2;ratioP2;P2;SDS_P1;SDS_P2;PMS_P1;PMS_P2;Temp;Humidity;BMP_temperature;BMP_pressure;BME280_temperature;BME280_humidity;BME280_pressure;Samples;Min_cycle;Max_cycle;Signal;HPM_P1;HPM_P2
2021/01/01 00:04:38;;;;;;;52.55;37.22;;;;;;;2.71;100.00;99952.31;10240783;29;20098;-76
2021/01/01 00:09:39;;;;;;;52.25;36.97;;;;;;;2.71;100.00;99953.16;10258363;29;20047;-76
2021/01/01 00:14:40;;;;;;;47.35;35.45;;;;;;;2.78;100.00;99953.88;10256896;28;20039;-75
2021/01/01 00:19:41;;;;;;;58.65;41.88;;;;;;;2.85;100.00;99974.50;10257495;28;20047;-75
2021/01/01 00:24:42;;;;;;;46.38;34.40;;;;;;;2.88;100.00;99961.44;10297187;28;20506;-75
2021/01/01 00:29:43;;;;;;;41.33;30.35;;;;;;;2.77;100.00;99954.78;10258771;28;20145;-76
2021/01/01 00:34:44;;;;;;;44.83;30.38;;;;;;;2.74;100.00;99952.25;10239836;29;20138;-75
2021/01/01 00:39:46;;;;;;;55.20;37.25;;;;;;;2.62;100.00;99953.38;10257025;29;20048;-75
2021/01/01 00:44:47;;;;;;;46.33;29.95;;;;;;;2.73;100.00;99964.41;10255922;28;20399;-74
2021/01/01 00:49:48;;;;;;;53.65;35.65;;;;;;;2.71;100.00;99963.56;10256362;29;20066;-75
2021/01/01 00:54:49;;;;;;;57.88;34.95;;;;;;;2.67;100.00;99954.16;10256490;29;20042;-75
2021/01/01 00:59:51;;;;;;;56.55;36.08;;;;;;;2.65;100.00;99961.97;10253888;29;20047;-75
2021/01/01 01:04:52;;;;;;;62.95;39.60;;;;;;;2.70;100.00;99971.41;10239001;29;20062;-75
2021/01/01 01:09:53;;;;;;;57.50;37.97;;;;;;;2.61;100.00;99972.47;10252312;29;20539;-76
2021/01/01 01:14:55;;;;;;;57.42;39.25;;;;;;;2.51;100.00;99973.59;10249767;28;20043;-75
2021/01/01 01:19:56;;;;;;;55.63;35.75;;;;;;;2.42;100.00;99969.44;10252225;28;20519;-76
2021/01/01 01:24:57;;;;;;;60.08;36.78;;;;;;;2.36;100.00;99977.34;10254332;29;20393;-76
2021/01/01 01:30:00;;;;;;;66.45;41.30;;;;;;;2.32;100.00;99983.50;10255194;29;20074;-75
2021/01/01 01:35:01;;;;;;;49.65;31.85;;;;;;;2.37;100.00;99996.38;10254967;28;20055;-75
2021/01/01 01:40:03;;;;;;;49.25;31.10;;;;;;;2.28;100.00;99998.28;10216407;28;20497;-75
2021/01/01 01:45:08;;;;;;;47.25;30.15;;;;;;;2.16;100.00;99993.34;10214681;29;20059;-75
2021/01/01 01:50:11;;;;;;;43.22;29.50;;;;;;;2.22;100.00;100005.38;10213984;29;20052;-75
2021/01/01 01:55:13;;;;;;;39.50;27.60;;;;;;;2.31;100.00;100012.97;10213666;29;20047;-75
2021/01/01 02:05:35;;;;;;;36.80;23.83;;;;;;;2.19;100.00;100001.06;10252930;28;20428;-77
2021/01/01 02:10:36;;;;;;;37.40;25.15;;;;;;;2.24;100.00;100004.44;10254395;29;20050;-78
2021/01/01 02:15:38;;;;;;;37.53;23.98;;;;;;;2.15;100.00;100007.22;10253602;29;20043;-75
2021/01/01 02:20:39;;;;;;;39.67;24.45;;;;;;;2.09;100.00;100003.91;10231135;29;20062;-75
2021/01/01 02:25:40;;;;;;;42.88;27.45;;;;;;;2.22;100.00;100024.41;10216687;28;20044;-75
2021/01/01 02:30:42;;;;;;;38.60;24.70;;;;;;;2.14;100.00;100015.91;10252409;28;20039;-76
2021/01/01 02:35:43;;;;;;;39.38;24.33;;;;;;;2.23;100.00;100022.66;10252811;29;20126;-75
2021/01/01 02:40:44;;;;;;;38.30;24.95;;;;;;;2.19;100.00;100018.41;10252122;28;20484;-75
2021/01/01 02:45:45;;;;;;;35.85;23.63;;;;;;;2.20;100.00;100020.97;10252248;29;20051;-76
2021/01/01 02:50:47;;;;;;;39.30;26.38;;;;;;;2.18;100.00;100029.69;10205784;29;20052;-75
2021/01/01 02:55:49;;;;;;;38.90;26.33;;;;;;;2.27;100.00;100037.31;10213385;29;20448;-76
2021/01/01 03:00:50;;;;;;;35.78;25.35;;;;;;;2.22;100.00;100028.75;10233682;29;20048;-75
2021/01/01 03:05:51;;;;;;;34.20;23.83;;;;;;;2.24;100.00;100030.44;10214321;29;20047;-75
2021/01/01 03:10:52;;;;;;;31.60;22.17;;;;;;;2.21;100.00;100017.50;10252467;29;20047;-75
2021/01/01 03:15:53;;;;;;;38.72;25.52;;;;;;;2.17;100.00;100021.06;10271639;28;20082;-75
2021/01/01 03:20:54;;;;;;;31.45;21.13;;;;;;;2.17;100.00;100028.00;10299255;28;20058;-75
2021/01/01 03:25:56;;;;;;;30.38;21.85;;;;;;;2.16;100.00;100021.94;10273423;28;20043;-75
2021/01/01 03:30:57;;;;;;;38.25;24.88;;;;;;;2.21;100.00;100021.84;10299366;28;20058;-75
2021/01/01 03:35:58;;;;;;;32.25;21.25;;;;;;;2.15;100.00;100016.75;10300279;28;20097;-75
2021/01/01 03:40:59;;;;;;;32.58;22.27;;;;;;;2.11;100.00;100020.28;10270645;28;20035;-75
2021/01/01 03:46:00;;;;;;;32.42;21.80;;;;;;;2.10;100.00;100022.03;10258658;29;20039;-76
2021/01/01 03:51:01;;;;;;;40.63;28.20;;;;;;;2.14;100.00;100026.31;10259209;29;20051;-76
2021/01/01 03:56:02;;;;;;;32.85;22.75;;;;;;;2.22;100.00;100041.75;10240860;29;20094;-75
2021/01/01 04:01:03;;;;;;;34.28;23.25;;;;;;;2.30;100.00;100042.44;10258455;29;20073;-76
2021/01/01 04:06:05;;;;;;;34.47;22.95;;;;;;;2.31;100.00;100038.09;10258591;29;20040;-75
2021/01/01 04:11:06;;;;;;;32.92;21.77;;;;;;;2.19;100.00;100031.41;10257896;29;20389;-75
2021/01/01 04:16:07;;;;;;;35.22;23.00;;;;;;;2.16;100.00;100023.69;10253389;28;20043;-77
2021/01/01 04:21:09;;;;;;;34.38;23.27;;;;;;;2.25;100.00;100033.91;10257275;28;20047;-76
2021/01/01 04:26:11;;;;;;;36.83;23.65;;;;;;;2.27;100.00;100026.91;10256916;28;20061;-75
2021/01/01 04:31:12;;;;;;;36.17;22.85;;;;;;;2.39;100.00;100034.47;10256482;28;20420;-75
2021/01/01 04:36:13;;;;;;;31.27;22.42;;;;;;;2.43;100.00;100030.03;10256482;28;20047;-76
2021/01/01 04:41:14;;;;;;;34.60;25.02;;;;;;;2.47;100.00;100027.38;10256565;29;20051;-75
2021/01/01 04:46:16;;;;;;;31.85;22.58;;;;;;;2.44;100.00;100024.81;10256654;29;20050;-75
2021/01/01 04:51:17;;;;;;;37.15;25.90;;;;;;;2.33;100.00;100020.75;10256515;29;20046;-75
2021/01/01 04:56:19;;;;;;;36.03;25.35;;;;;;;2.35;100.00;100018.94;10256274;29;20051;-75
2021/01/01 05:01:24;;;;;;;37.03;25.77;;;;;;;2.28;100.00;100023.41;10255554;29;20036;-75
2021/01/01 05:06:30;;;;;;;41.53;27.02;;;;;;;2.31;100.00;100032.91;10253982;29;20118;-75
2021/01/01 05:11:31;;;;;;;36.95;24.52;;;;;;;2.24;100.00;100026.97;10249589;28;20047;-75
2021/01/01 05:16:33;;;;;;;40.20;28.35;;;;;;;2.26;100.00;100032.97;10199367;29;20095;-75
2021/01/01 05:21:34;;;;;;;41.83;27.63;;;;;;;2.40;100.00;100054.38;10215586;29;20354;-76
2021/01/01 05:26:35;;;;;;;38.25;25.92;;;;;;;2.45;100.00;100044.72;10237505;28;20060;-76
2021/01/01 05:31:40;;;;;;;37.25;26.73;;;;;;;2.43;100.00;100041.31;10294578;28;20066;-76
2021/01/01 05:36:46;;;;;;;;;;;;;;;2.45;100.00;100054.28;10261067;28;20403;-76
2021/01/01 05:41:49;;;;;;;35.33;25.10;;;;;;;2.45;100.00;100052.53;10215379;29;19930;-75
2021/01/01 05:46:56;;;;;;;44.38;28.55;;;;;;;2.51;100.00;100052.41;10231286;29;20051;-75
2021/01/01 05:52:06;;;;;;;39.80;26.00;;;;;;;2.50;100.00;100055.91;10254353;29;20079;-75
2021/01/01 05:57:09;;;;;;;36.70;25.20;;;;;;;2.49;100.00;100055.94;10254338;29;20047;-76
2021/01/01 06:02:11;;;;;;;36.25;25.83;;;;;;;2.40;100.00;100063.91;10213891;29;20056;-75
2021/01/01 06:07:12;;;;;;;47.42;31.02;;;;;;;2.39;100.00;100067.41;10252624;29;20043;-75
2021/01/01 06:12:25;;;;;;;43.25;28.90;;;;;;;2.26;100.00;100061.56;10254687;29;20050;-75
2021/01/01 06:17:32;;;;;;;47.50;31.05;;;;;;;2.25;100.00;100067.69;10254098;29;20043;-76
2021/01/01 06:22:58;;;;;;;43.75;28.50;;;;;;;2.22;100.00;100076.38;10236175;29;20047;-76
2021/01/01 06:27:59;;;;;;;40.17;28.83;;;;;;;2.05;100.00;100075.84;10253570;28;20047;-75
2021/01/01 06:33:07;;;;;;;40.75;28.00;;;;;;;2.12;100.00;100080.03;10252801;28;20062;-75
2021/01/01 06:38:08;;;;;;;40.25;28.40;;;;;;;2.06;100.00;100084.50;10231747;29;20095;-75
2021/01/01 06:43:09;;;;;;;45.33;29.85;;;;;;;2.09;100.00;100097.44;10241249;28;20047;-75
2021/01/01 06:48:18;;;;;;;40.08;28.85;;;;;;;2.06;100.00;100100.06;10223185;29;20055;-75
2021/01/01 06:53:26;;;;;;;49.08;31.33;;;;;;;2.06;100.00;100111.31;10204197;29;20048;-75
2021/01/01 06:58:27;;;;;;;46.03;31.25;;;;;;;2.06;100.00;100105.28;10221060;29;20059;-75
2021/01/01 07:03:41;;;;;;;50.45;34.70;;;;;;;2.08;100.00;100111.31;10258187;29;20031;-75
2021/01/01 07:08:42;;;;;;;50.10;33.67;;;;;;;2.00;100.00;100110.59;10227896;29;20409;-75
2021/01/01 07:13:46;;;;;;;58.00;38.03;;;;;;;2.00;100.00;100119.25;10221311;28;20055;-76
2021/01/01 07:18:48;;;;;;;55.53;38.78;;;;;;;1.95;100.00;100130.56;10254636;29;20051;-76
2021/01/01 07:23:50;;;;;;;57.10;38.25;;;;;;;1.98;100.00;100133.13;10243018;29;20399;-75
2021/01/01 07:28:51;;;;;;;47.88;35.15;;;;;;;1.99;100.00;100140.03;10259226;28;20047;-75
2021/01/01 07:33:53;;;;;;;60.15;42.85;;;;;;;1.95;100.00;100138.34;10259844;28;20055;-75
2021/01/01 07:39:03;;;;;;;52.55;37.83;;;;;;;1.93;100.00;100135.78;10258055;28;20066;-75
2021/01/01 07:44:04;;;;;;;51.33;37.20;;;;;;;1.96;100.00;100135.75;10259517;29;20050;-76
2021/01/01 07:49:06;;;;;;;54.08;37.80;;;;;;;1.92;100.00;100137.53;10259590;29;20039;-76
2021/01/01 07:54:07;;;;;;;57.58;40.38;;;;;;;1.86;100.00;100134.16;10256786;28;20054;-75
2021/01/01 07:59:08;;;;;;;55.38;37.30;;;;;;;1.80;100.00;100137.75;10258152;29;20046;-75
2021/01/01 08:04:17;;;;;;;59.92;38.17;;;;;;;1.64;100.00;100133.66;10257511;28;20050;-75
2021/01/01 08:09:18;;;;;;;53.25;38.15;;;;;;;1.54;100.00;100142.47;10216669;29;20040;-75
2021/01/01 08:14:20;;;;;;;56.50;38.67;;;;;;;1.47;100.00;100141.72;10218773;29;20051;-75
2021/01/01 08:19:22;;;;;;;56.47;37.97;;;;;;;1.63;100.00;100157.91;10256545;28;20043;-75
2021/01/01 08:24:25;;;;;;;54.25;36.83;;;;;;;1.76;100.00;100161.16;10218085;29;20415;-75
2021/01/01 08:29:27;;;;;;;62.80;44.45;;;;;;;1.74;100.00;100160.34;10251128;28;20058;-75
2021/01/01 08:34:28;;;;;;;61.13;40.22;;;;;;;2.15;100.00;100183.06;10256072;28;20051;-75
2021/01/01 08:39:29;;;;;;;61.53;40.95;;;;;;;2.44;100.00;100192.94;10237073;29;20059;-75
2021/01/01 08:44:32;;;;;;;55.65;38.25;;;;;;;2.67;100.00;100199.47;10256251;29;20050;-75
2021/01/01 08:49:34;;;;;;;58.60;37.22;;;;;;;2.85;100.00;100205.16;10256503;28;20055;-77
2021/01/01 08:54:35;;;;;;;54.90;36.83;;;;;;;2.96;100.00;100205.81;10256966;29;20039;-76
2021/01/01 08:59:36;;;;;;;54.03;36.45;;;;;;;3.30;100.00;100214.66;10239274;29;20035;-76
2021/01/01 09:04:37;;;;;;;62.08;40.08;;;;;;;3.45;100.00;100221.28;10256454;28;20404;-76
2021/01/01 09:09:38;;;;;;;52.35;34.53;;;;;;;3.76;100.00;100227.56;10253644;28;20043;-76
2021/01/01 09:14:56;;;;;;;53.13;35.17;;;;;;;4.05;100.00;100231.22;10256184;29;20043;-76
2021/01/01 09:20:09;;;;;;;52.80;34.92;;;;;;;4.23;100.00;100237.75;10255572;29;20039;-75
2021/01/01 09:25:31;;;;;;;50.00;30.45;;;;;;;4.48;100.00;100233.63;10254666;29;20102;-76
2021/01/01 09:30:35;;;;;;;44.92;30.35;;;;;;;4.98;100.00;100240.13;10222096;29;20506;-75
2021/01/01 09:35:36;;;;;;;47.80;31.77;;;;;;;4.87;100.00;100226.50;10253165;28;20404;-76
2021/01/01 09:40:38;;;;;;;49.35;32.72;;;;;;;5.07;100.00;100226.81;10253727;29;20130;-76
2021/01/01 09:45:39;;;;;;;51.38;34.90;;;;;;;5.29;100.00;100219.22;10254536;29;20056;-76
2021/01/01 09:50:40;;;;;;;39.75;29.67;;;;;;;5.30;100.00;100213.97;10254113;29;20055;-76
2021/01/01 09:55:42;;;;;;;51.88;34.20;;;;;;;4.44;100.00;100178.06;10254219;29;20039;-76
2021/01/01 10:00:43;;;;;;;47.25;33.65;;;;;;;5.34;100.00;100233.03;10254254;29;20051;-75
2021/01/01 10:05:48;;;;;;;44.13;31.25;;;;;;;5.51;100.00;100212.50;10253897;29;20408;-75
2021/01/01 10:10:49;;;;;;;;;;;;;;;5.91;100.00;100213.91;10252633;28;20381;-76
2021/01/01 10:15:50;;;;;;;42.60;30.17;;;;;;;6.22;100.00;100200.69;10224550;29;20283;-76
2021/01/01 10:20:51;;;;;;;42.17;29.70;;;;;;;6.69;100.00;100206.97;10221215;29;20051;-76
2021/01/01 10:25:52;;;;;;;41.35;30.20;;;;;;;6.86;100.00;100189.72;10225120;28;20047;-75
2021/01/01 10:30:53;;;;;;;43.80;32.60;;;;;;;8.70;100.00;100200.81;10250586;28;20051;-75
2021/01/01 10:35:55;;;;;;;38.05;28.60;;;;;;;9.80;97.67;100232.66;10236563;28;20055;-74
2021/01/01 10:40:56;;;;;;;38.15;29.60;;;;;;;8.94;90.35;100148.16;10245333;29;20058;-75
2021/01/01 10:45:58;;;;;;;39.10;29.50;;;;;;;8.23;94.89;100124.06;10249756;29;20496;-74
2021/01/01 10:50:59;;;;;;;40.90;29.67;;;;;;;9.54;96.93;100199.66;10247642;29;20098;-74
2021/01/01 10:56:00;;;;;;;37.65;29.23;;;;;;;8.97;90.67;100125.19;10248429;29;20043;-75
2021/01/01 11:01:01;;;;;;;36.78;26.45;;;;;;;11.09;84.40;100191.09;10250353;29;20039;-75
2021/01/01 11:06:02;;;;;;;32.65;26.00;;;;;;;10.13;82.41;100114.38;10245332;29;20059;-74
2021/01/01 11:11:04;;;;;;;32.85;25.90;;;;;;;9.22;86.48;100084.66;10247046;29;20491;-74
2021/01/01 12:25:23;;;;;;;25.75;19.08;;;;;;;6.63;100.00;100069.28;10256735;28;20409;-73
2021/01/01 12:30:25;;;;;;;27.15;19.88;;;;;;;6.86;100.00;100082.38;10255918;29;20435;-73
2021/01/01 12:35:27;;;;;;;27.52;20.33;;;;;;;6.79;100.00;100083.50;10257131;28;20055;-73
2021/01/01 12:40:29;;;;;;;29.63;21.55;;;;;;;6.76;100.00;100093.25;10254440;28;20055;-73
2021/01/01 12:45:30;;;;;;;26.67;21.45;;;;;;;6.78;100.00;100096.66;10243051;29;20043;-73
2021/01/01 12:50:31;;;;;;;25.83;19.20;;;;;;;6.37;100.00;100088.53;10251763;29;20400;-74
2021/01/01 12:55:33;;;;;;;29.60;24.35;;;;;;;6.53;100.00;100115.00;10251166;29;20102;-73
2021/01/01 13:00:34;;;;;;;30.77;23.85;;;;;;;6.78;100.00;100120.22;10254701;29;20043;-74
2021/01/01 13:05:35;;;;;;;31.70;24.60;;;;;;;6.60;100.00;100102.59;10252003;29;20074;-74
2021/01/01 13:10:36;;;;;;;26.77;20.05;;;;;;;6.24;100.00;100089.88;10251730;28;20106;-74
2021/01/01 13:15:37;;;;;;;26.85;21.80;;;;;;;6.23;100.00;100097.78;10252330;29;20047;-74
2021/01/01 13:20:40;;;;;;;26.83;19.70;;;;;;;6.46;100.00;100103.06;10254131;28;20076;-74
2021/01/01 13:25:41;;;;;;;26.30;19.80;;;;;;;6.18;100.00;100099.72;10237091;29;20043;-74
2021/01/01 13:30:43;;;;;;;25.17;21.15;;;;;;;5.90;100.00;100084.09;10214657;29;20047;-74
2021/01/01 13:35:46;;;;;;;25.83;18.95;;;;;;;5.82;100.00;100099.16;10240858;29;20055;-74
2021/01/01 13:40:47;;;;;;;25.52;19.77;;;;;;;5.84;100.00;100099.97;10251948;29;20098;-73
2021/01/01 13:45:48;;;;;;;21.98;18.10;;;;;;;5.73;100.00;100095.06;10254597;29;20054;-74
2021/01/01 13:50:49;;;;;;;30.70;21.23;;;;;;;5.38;100.00;100096.19;10254436;28;20047;-74
2021/01/01 13:55:51;;;;;;;26.77;20.13;;;;;;;5.34;100.00;100110.28;10253964;29;20087;-74
2021/01/01 14:00:52;;;;;;;27.23;21.48;;;;;;;5.35;100.00;100119.81;10236161;29;20531;-73
2021/01/01 14:05:53;;;;;;;24.27;19.27;;;;;;;5.32;100.00;100122.53;10253623;29;20488;-73
2021/01/01 14:10:54;;;;;;;23.98;19.75;;;;;;;5.08;100.00;100123.25;10252141;29;20558;-73
2021/01/01 14:15:55;;;;;;;35.95;26.35;;;;;;;5.03;100.00;100122.53;10240567;29;20044;-74
2021/01/01 14:20:56;;;;;;;40.67;28.02;;;;;;;5.09;100.00;100140.63;10246797;29;20123;-73
2021/01/01 14:25:58;;;;;;;41.92;29.65;;;;;;;5.20;100.00;100148.97;10246770;28;20047;-73
2021/01/01 14:31:00;;;;;;;38.78;25.90;;;;;;;5.26;100.00;100152.28;10246066;29;20083;-73
2021/01/01 14:36:01;;;;;;;36.25;26.90;;;;;;;5.08;100.00;100138.91;10252824;28;20369;-73
2021/01/01 14:41:02;;;;;;;27.05;20.23;;;;;;;5.02;100.00;100145.16;10252538;29;20043;-74
2021/01/01 14:46:10;;;;;;;26.15;19.77;;;;;;;4.91;100.00;100150.72;10252076;29;20465;-73
2021/01/01 14:51:11;;;;;;;29.33;22.58;;;;;;;4.78;100.00;100148.47;10252848;29;20054;-73
2021/01/01 14:56:12;;;;;;;39.42;31.67;;;;;;;4.54;100.00;100165.66;10251760;29;20039;-73
2021/01/01 15:01:14;;;;;;;36.03;30.73;;;;;;;4.37;100.00;100173.06;10243422;28;20031;-74
2021/01/01 15:06:15;;;;;;;26.70;20.55;;;;;;;4.30;100.00;100179.34;10258140;29;20046;-74
2021/01/01 15:11:17;;;;;;;61.15;45.33;;;;;;;4.28;100.00;100196.75;10256981;28;20039;-73
2021/01/01 15:16:18;;;;;;;24.10;18.52;;;;;;;4.17;100.00;100205.72;10255220;29;20086;-73
2021/01/01 15:21:21;;;;;;;23.88;19.17;;;;;;;4.20;100.00;100203.03;10255728;29;20124;-75
2021/01/01 15:26:23;;;;;;;23.55;19.10;;;;;;;4.00;100.00;100215.69;10256743;28;20044;-74
2021/01/01 15:31:25;;;;;;;24.15;19.42;;;;;;;3.84;100.00;100213.50;10255144;29;20035;-74
2021/01/01 15:36:26;;;;;;;23.05;19.20;;;;;;;3.55;100.00;100225.41;10256614;29;20039;-74
2021/01/01 15:41:27;;;;;;;22.65;18.35;;;;;;;3.27;100.00;100227.72;10255787;29;20047;-74
2021/01/01 15:46:28;;;;;;;22.52;17.58;;;;;;;3.27;100.00;100251.16;10256195;29;20043;-74
2021/01/01 15:51:30;;;;;;;22.90;18.35;;;;;;;3.28;100.00;100262.44;10258603;29;20059;-73
2021/01/01 15:56:31;;;;;;;23.75;19.40;;;;;;;3.30;100.00;100274.53;10238934;29;20047;-73
2021/01/01 16:01:38;;;;;;;24.83;20.00;;;;;;;2.96;100.00;100263.06;10252697;29;20043;-74
2021/01/01 16:06:47;;;;;;;24.08;19.30;;;;;;;2.74;100.00;100267.81;10235533;29;20496;-74
2021/01/01 16:11:48;;;;;;;28.20;21.55;;;;;;;2.72;100.00;100285.19;10237445;28;20087;-74
2021/01/01 16:30:51;;;;;;;34.53;25.23;;;;;;;2.31;100.00;100304.06;10240839;28;20035;-74
2021/01/01 16:35:52;;;;;;;29.60;22.13;;;;;;;2.28;100.00;100304.09;10255448;28;20138;-74
2021/01/01 16:40:53;;;;;;;67.97;49.45;;;;;;;2.31;100.00;100321.41;10255572;28;20387;-74
2021/01/01 16:45:54;;;;;;;30.98;25.45;;;;;;;2.18;100.00;100313.78;10237698;29;20139;-74
2021/01/01 16:50:55;;;;;;;31.02;24.13;;;;;;;1.98;100.00;100301.97;10253468;29;20102;-74
2021/01/01 16:55:56;;;;;;;31.15;25.35;;;;;;;1.90;100.00;100317.66;10231278;28;20047;-74
2021/01/01 17:00:59;;;;;;;29.98;23.85;;;;;;;1.83;100.00;100322.09;10235160;29;20058;-75
2021/01/01 17:06:00;;;;;;;29.63;25.05;;;;;;;1.82;100.00;100324.69;10254256;29;20091;-75
2021/01/01 17:11:05;;;;;;;32.05;23.88;;;;;;;1.98;100.00;100348.72;10237959;29;20046;-75
2021/01/01 17:16:07;;;;;;;35.25;27.73;;;;;;;1.90;100.00;100334.13;10253504;29;20050;-75
2021/01/01 17:21:08;;;;;;;33.30;23.33;;;;;;;1.75;100.00;100339.50;10254353;29;20047;-75
2021/01/01 17:26:13;;;;;;;31.50;24.17;;;;;;;1.88;100.00;100359.25;10237693;28;20058;-75
2021/01/01 17:31:26;;;;;;;32.10;25.13;;;;;;;2.09;100.00;100370.25;10258923;29;20480;-75
2021/01/01 17:36:29;;;;;;;36.45;27.60;;;;;;;1.94;100.00;100357.44;10256955;29;20050;-75
2021/01/01 17:41:30;;;;;;;53.55;38.42;;;;;;;2.18;100.00;100385.69;10237344;29;20046;-75
2021/01/01 17:46:32;;;;;;;51.97;36.25;;;;;;;2.13;100.00;100377.97;10237034;29;20050;-75
2021/01/01 17:51:33;;;;;;;53.60;38.45;;;;;;;2.10;100.00;100371.94;10253689;29;20077;-75
2021/01/01 17:56:35;;;;;;;38.88;28.25;;;;;;;2.11;100.00;100384.91;10254373;29;20043;-75
2021/01/01 18:01:36;;;;;;;35.90;27.05;;;;;;;2.08;100.00;100374.56;10253299;28;20071;-75
2021/01/01 18:06:38;;;;;;;43.55;33.65;;;;;;;2.18;100.00;100383.06;10236197;29;20047;-75
2021/01/01 18:11:39;;;;;;;66.57;46.72;;;;;;;2.16;100.00;100384.88;10252614;29;20054;-75
2021/01/01 18:16:41;;;;;;;62.35;42.30;;;;;;;2.29;100.00;100402.84;10252199;29;20035;-75
2021/01/01 18:21:42;;;;;;;48.50;35.15;;;;;;;2.32;100.00;100414.09;10245412;29;20503;-75
2021/01/01 18:26:46;;;;;;;57.30;38.50;;;;;;;2.09;100.00;100391.84;10252897;29;20051;-75
2021/01/01 18:31:51;;;;;;;58.25;39.85;;;;;;;1.90;100.00;100383.47;10252746;29;20082;-75
2021/01/01 18:36:55;;;;;;;31.52;24.17;;;;;;;1.80;100.00;100393.97;10245194;28;20051;-75
2021/01/01 18:41:58;;;;;;;34.90;25.27;;;;;;;1.85;100.00;100403.41;10221266;29;20043;-75
2021/01/01 18:47:06;;;;;;;54.05;39.22;;;;;;;1.64;100.00;100398.50;10258982;29;20063;-75
2021/01/01 18:52:08;;;;;;;35.53;26.27;;;;;;;1.69;100.00;100416.59;10260522;29;20055;-75
2021/01/01 18:57:15;;;;;;;60.67;40.25;;;;;;;1.68;100.00;100420.06;10260495;29;20051;-75
2021/01/01 19:02:38;;;;;;;60.85;41.53;;;;;;;1.74;100.00;100433.88;10259978;29;20134;-75
2021/01/01 19:07:44;;;;;;;53.40;39.83;;;;;;;1.63;100.00;100433.13;10248585;29;20075;-75
2021/01/01 19:12:53;;;;;;;46.88;34.42;;;;;;;1.63;100.00;100440.03;10259993;29;20043;-75
2021/01/01 19:17:56;;;;;;;44.17;32.50;;;;;;;1.66;100.00;100443.47;10259475;28;20055;-75
2021/01/01 19:23:00;;;;;;;47.23;34.57;;;;;;;1.75;100.00;100453.78;10259367;29;20141;-75
2021/01/01 19:28:04;;;;;;;43.53;29.75;;;;;;;1.88;100.00;100462.28;10258557;28;20282;-75
2021/01/01 19:33:24;;;;;;;30.10;22.23;;;;;;;2.13;100.00;100475.84;10258448;29;20059;-75
2021/01/01 19:38:28;;;;;;;32.45;22.38;;;;;;;2.24;100.00;100493.03;10257871;28;20291;-75
2021/01/01 19:43:54;;;;;;;29.23;20.33;;;;;;;2.42;100.00;100511.88;10258289;29;20043;-75
2021/01/01 19:49:05;;;;;;;29.58;20.60;;;;;;;2.32;100.00;100494.66;10258381;28;20403;-75
2021/01/01 19:54:28;;;;;;;27.75;20.13;;;;;;;2.46;100.00;100513.53;10258323;29;20039;-75
2021/01/01 19:59:34;;;;;;;28.27;21.17;;;;;;;2.51;100.00;100512.59;10258164;29;20054;-75
2021/01/01 20:04:37;;;;;;;26.05;19.20;;;;;;;2.56;100.00;100515.16;10240912;29;20046;-75
2021/01/01 20:10:01;;;;;;;25.60;19.58;;;;;;;2.50;100.00;100517.84;10256857;29;20492;-75
2021/01/01 20:15:03;;;;;;;29.73;23.42;;;;;;;2.43;100.00;100522.22;10257886;28;20102;-75
2021/01/01 20:20:05;;;;;;;24.00;19.35;;;;;;;2.45;100.00;100528.28;10246758;28;20561;-75
2021/01/01 20:25:09;;;;;;;29.88;21.48;;;;;;;2.51;100.00;100536.00;10269866;28;20039;-75
2021/01/01 20:30:19;;;;;;;21.60;16.95;;;;;;;2.54;100.00;100546.38;10239502;29;20439;-75
2021/01/01 20:35:46;;;;;;;26.58;17.77;;;;;;;2.57;100.00;100548.94;10256064;28;20408;-75
2021/01/01 20:41:20;;;;;;;27.58;21.80;;;;;;;2.57;100.00;100546.34;10221665;29;20075;-75
2021/01/01 20:57:03;;;;;;;54.38;40.35;;;;;;;2.62;100.00;100541.94;10256346;29;20499;-75
2021/01/01 21:02:07;;;;;;;55.55;42.25;;;;;;;2.63;100.00;100548.84;10254639;28;20048;-75
2021/01/01 21:07:32;;;;;;;97.87;64.13;;;;;;;2.69;100.00;100550.50;10255367;28;20044;-75
2021/01/01 21:12:48;;;;;;;59.13;42.92;;;;;;;2.71;100.00;100547.88;10248330;28;20338;-76
2021/01/01 21:18:11;;;;;;;37.30;28.20;;;;;;;2.66;100.00;100556.63;10256141;29;20062;-75
2021/01/01 21:23:34;;;;;;;33.00;26.35;;;;;;;2.55;100.00;100547.22;10237845;29;20472;-75
2021/01/01 21:28:50;;;;;;;35.92;24.77;;;;;;;2.73;100.00;100564.34;10234146;29;20061;-74
2021/01/01 21:34:01;;;;;;;;;;;;;;;2.98;100.00;100558.78;10248540;28;20055;-74
2021/01/01 21:39:41;;;;;;;29.80;23.65;;;;;;;2.84;100.00;100558.13;10219604;28;19929;-75
2021/01/01 21:45:09;;;;;;;35.08;26.20;;;;;;;2.56;100.00;100551.56;10253205;29;20499;-75
2021/01/01 21:50:15;;;;;;;34.78;27.73;;;;;;;2.50;100.00;100555.09;10237335;29;20055;-74
2021/01/01 21:55:16;;;;;;;33.45;25.23;;;;;;;2.49;100.00;100557.72;10237117;29;20733;-74
2021/01/01 22:00:23;;;;;;;30.73;23.08;;;;;;;2.51;100.00;100564.59;10254706;29;20063;-74
2021/01/01 22:05:24;;;;;;;36.22;25.67;;;;;;;2.60;100.00;100571.44;10243735;28;20043;-74
2021/01/01 22:10:26;;;;;;;30.85;23.58;;;;;;;2.71;100.00;100579.09;10248505;28;20090;-74
2021/01/01 22:15:27;;;;;;;34.97;25.30;;;;;;;2.65;100.00;100578.31;10251456;28;20046;-74
2021/01/01 22:20:28;;;;;;;35.58;25.83;;;;;;;2.73;100.00;100586.00;10249074;29;20047;-74
2021/01/01 22:25:29;;;;;;;34.05;24.88;;;;;;;2.74;100.00;100585.13;10249791;28;20425;-74
2021/01/01 22:30:30;;;;;;;29.90;22.98;;;;;;;2.77;100.00;100584.22;10251089;29;20043;-74
2021/01/01 22:35:31;;;;;;;28.38;21.67;;;;;;;2.85;100.00;100597.97;10251570;28;20079;-74
2021/01/01 22:40:33;;;;;;;33.90;24.88;;;;;;;2.87;100.00;100591.03;10252379;29;20051;-74
2021/01/01 22:45:34;;;;;;;33.30;22.23;;;;;;;2.96;100.00;100598.72;10252724;29;20040;-74
2021/01/01 22:50:36;;;;;;;31.67;24.27;;;;;;;2.88;100.00;100593.63;10250874;29;20067;-74
2021/01/01 22:55:40;;;;;;;32.88;25.33;;;;;;;2.65;100.00;100585.25;10251043;29;20055;-75
2021/01/01 23:00:43;;;;;;;29.58;22.77;;;;;;;2.56;100.00;100581.03;10251977;28;20058;-75
2021/01/01 23:05:44;;;;;;;30.38;21.92;;;;;;;2.61;100.00;100591.34;10234217;29;20055;-74
2021/01/01 23:10:46;;;;;;;29.83;22.10;;;;;;;2.62;100.00;100595.69;10251506;29;20045;-74
2021/01/01 23:15:48;;;;;;;29.00;21.63;;;;;;;2.63;100.00;100602.59;10280458;28;20093;-74
2021/01/01 23:20:56;;;;;;;29.23;21.98;;;;;;;2.65;100.00;100613.88;10291730;28;20047;-74
2021/01/01 23:26:03;;;;;;;30.20;22.98;;;;;;;2.64;100.00;100614.75;10290848;28;20051;-74
2021/01/01 23:31:20;;;;;;;27.67;21.25;;;;;;;2.49;100.00;100597.59;10225483;28;20047;-74
2021/01/01 23:36:34;;;;;;;30.27;21.23;;;;;;;2.66;100.00;100616.44;10241094;29;20055;-74
2021/01/01 23:41:39;;;;;;;29.23;21.67;;;;;;;2.66;100.00;100623.38;10239836;29;20050;-74
2021/01/01 23:46:54;;;;;;;34.92;22.92;;;;;;;2.61;100.00;100625.16;10257398;29;20070;-74
2021/01/01 23:51:55;;;;;;;27.45;20.00;;;;;;;2.59;100.00;100622.59;10258225;29;20051;-75
2021/01/01 23:56:57;;;;;;;30.02;22.13;;;;;;;2.54;100.00;100618.31;10258104;28;20480;-74
